createdAt,value
2018-01-18T00:00:37.506Z,97783.14
2018-01-18T00:03:05.076Z,97783.82
2018-01-18T00:05:33.561Z,97787.30
2018-01-18T00:08:01.239Z,97788.80
2018-01-18T00:10:28.799Z,97781.91
2018-01-18T00:12:56.393Z,97793.69
2018-01-18T00:15:23.966Z,97801.81
2018-01-18T00:17:51.533Z,97803.05
2018-01-18T00:20:19.149Z,97820.44
2018-01-18T00:22:46.729Z,97815.81
2018-01-18T00:25:14.304Z,97835.92
2018-01-18T00:27:41.908Z,97840.41
2018-01-18T00:30:09.468Z,97831.55
2018-01-18T00:32:37.055Z,97830.32
2018-01-18T00:35:04.657Z,97830.61
2018-01-18T00:37:32.271Z,97838.68
2018-01-18T00:39:59.824Z,97830.20
2018-01-18T00:42:27.428Z,97822.94
2018-01-18T00:44:54.995Z,97809.97
2018-01-18T00:47:22.641Z,97823.77
2018-01-18T00:49:50.224Z,97818.35
2018-01-18T00:52:17.793Z,97818.21
2018-01-18T00:54:45.373Z,97821.61
2018-01-18T00:57:12.979Z,97827.03
2018-01-18T00:59:40.539Z,97824.38
2018-01-18T01:02:08.136Z,97817.95
2018-01-18T01:04:35.847Z,97817.05
2018-01-18T01:07:03.407Z,97818.66
2018-01-18T01:09:30.959Z,97828.63
2018-01-18T01:11:58.553Z,97814.98
2018-01-18T01:14:26.126Z,97838.34
2018-01-18T01:16:53.713Z,97824.46
2018-01-18T01:19:21.428Z,97832.24
2018-01-18T01:21:48.984Z,97828.73
2018-01-18T01:24:16.553Z,97822.38
2018-01-18T01:26:44.143Z,97823.96
2018-01-18T01:29:11.690Z,97829.03
2018-01-18T01:31:39.260Z,97821.77
2018-01-18T01:34:06.862Z,97820.55
2018-01-18T01:36:34.412Z,97827.27
2018-01-18T01:39:01.986Z,97843.08
2018-01-18T01:41:29.583Z,97855.64
2018-01-18T01:43:57.183Z,97862.01
2018-01-18T01:46:24.740Z,97852.27
2018-01-18T01:48:52.334Z,97845.27
2018-01-18T01:51:19.903Z,97865.09
2018-01-18T01:53:47.459Z,97857.23
2018-01-18T01:56:15.058Z,97865.73
2018-01-18T01:58:42.623Z,97874.59
2018-01-18T02:01:10.182Z,97845.84
2018-01-18T02:03:37.772Z,97863.05
2018-01-18T02:06:05.329Z,97861.61
2018-01-18T02:08:32.899Z,97866.14
2018-01-18T02:11:00.481Z,97869.66
2018-01-18T02:13:28.041Z,97880.73
2018-01-18T02:15:55.619Z,97890.31
2018-01-18T02:18:23.212Z,97892.56
2018-01-18T02:20:50.762Z,97918.11
2018-01-18T02:23:18.319Z,97919.70
2018-01-18T02:25:45.914Z,97918.03
2018-01-18T02:28:13.478Z,97939.48
2018-01-18T02:30:41.039Z,97932.70
2018-01-18T02:33:08.677Z,97939.73
2018-01-18T02:35:36.239Z,97940.38
2018-01-18T02:38:03.796Z,97944.46
2018-01-18T02:40:31.396Z,97953.03
2018-01-18T02:42:58.944Z,97944.26
2018-01-18T02:45:26.493Z,97955.50
2018-01-18T02:47:54.088Z,97953.66
2018-01-18T02:50:21.647Z,97954.31
2018-01-18T02:52:49.212Z,97955.64
2018-01-18T02:55:16.824Z,97958.46
2018-01-18T02:57:44.361Z,97980.14
2018-01-18T03:00:11.894Z,97984.58
2018-01-18T03:02:39.476Z,97992.62
2018-01-18T03:05:07.055Z,97992.61
2018-01-18T03:07:34.638Z,97996.42
2018-01-18T03:10:02.245Z,98004.37
2018-01-18T03:12:29.821Z,97998.58
2018-01-18T03:14:57.378Z,97995.22
2018-01-18T03:17:24.983Z,97987.34
2018-01-18T03:19:52.550Z,97987.69
2018-01-18T03:22:20.110Z,97982.16
2018-01-18T03:24:47.718Z,97979.83
2018-01-18T03:27:15.289Z,97985.73
2018-01-18T03:29:42.859Z,97982.77
2018-01-18T03:32:10.461Z,97994.25
2018-01-18T03:34:38.038Z,98010.56
2018-01-18T03:37:05.585Z,98001.03
2018-01-18T03:39:33.189Z,98015.70
2018-01-18T03:42:00.747Z,98019.67
2018-01-18T03:44:28.309Z,98022.61
2018-01-18T03:46:55.913Z,98034.25
2018-01-18T03:49:23.490Z,98048.31
2018-01-18T03:51:51.055Z,98051.42
2018-01-18T03:54:18.648Z,98051.11
2018-01-18T03:56:46.214Z,98054.77
2018-01-18T03:59:13.766Z,98067.59
2018-01-18T04:01:41.370Z,98062.83
2018-01-18T04:04:08.974Z,98077.09
2018-01-18T04:06:36.523Z,98080.80
2018-01-18T04:09:04.234Z,98098.36
2018-01-18T04:11:31.798Z,98099.02
2018-01-18T04:13:59.365Z,98101.97
2018-01-18T04:16:26.949Z,98121.33
2018-01-18T04:18:54.524Z,98124.20
2018-01-18T04:21:22.079Z,98135.27
2018-01-18T04:23:49.731Z,98147.70
2018-01-18T04:26:17.286Z,98143.00
2018-01-18T04:28:44.840Z,98143.17
2018-01-18T04:31:12.440Z,98158.72
2018-01-18T04:33:39.992Z,98161.88
2018-01-18T04:36:07.552Z,98185.63
2018-01-18T04:38:35.156Z,98190.24
2018-01-18T04:41:02.715Z,98176.10
2018-01-18T04:43:30.273Z,98193.33
2018-01-18T04:45:57.889Z,98187.63
2018-01-18T04:48:25.457Z,98199.53
2018-01-18T04:50:53.059Z,98197.41
2018-01-18T04:53:20.648Z,98203.94
2018-01-18T04:55:48.210Z,98206.61
2018-01-18T04:58:15.796Z,98225.13
2018-01-18T05:00:43.402Z,98236.12
2018-01-18T05:03:10.969Z,98251.27
2018-01-18T05:05:38.539Z,98262.36
2018-01-18T05:08:06.123Z,98261.55
2018-01-18T05:10:33.695Z,98275.66
2018-01-18T05:13:01.247Z,98271.37
2018-01-18T05:15:28.849Z,98276.14
2018-01-18T05:17:56.410Z,98291.89
2018-01-18T05:20:23.967Z,98275.20
2018-01-18T05:22:51.566Z,98281.91
2018-01-18T05:25:19.126Z,98297.66
2018-01-18T05:27:46.690Z,98301.20
2018-01-18T05:30:14.292Z,98296.67
2018-01-18T05:32:41.926Z,98300.19
2018-01-18T05:35:09.509Z,98310.22
2018-01-18T05:37:37.118Z,98309.91
2018-01-18T05:40:04.674Z,98314.08
2018-01-18T05:42:32.227Z,98324.16
2018-01-18T05:44:59.861Z,98330.39
2018-01-18T05:47:27.421Z,98342.69
2018-01-18T05:49:54.993Z,98330.19
2018-01-18T05:52:22.607Z,98338.09
2018-01-18T05:54:50.157Z,98348.58
2018-01-18T05:57:17.737Z,98342.38
2018-01-18T05:59:45.334Z,98357.42
2018-01-18T06:02:12.886Z,98353.66
2018-01-18T06:04:40.454Z,98356.70
2018-01-18T06:07:08.065Z,98372.80
2018-01-18T06:09:35.630Z,98374.94
2018-01-18T06:12:03.195Z,98382.15
2018-01-18T06:14:30.953Z,98383.27
2018-01-18T06:16:58.522Z,98398.72
2018-01-18T06:19:26.090Z,98399.33
2018-01-18T06:21:53.709Z,98411.12
2018-01-18T06:24:21.303Z,98411.02
2018-01-18T06:26:48.878Z,98421.14
2018-01-18T06:29:16.532Z,98433.23
2018-01-18T06:31:44.196Z,98439.03
2018-01-18T06:34:11.768Z,98448.11
2018-01-18T06:36:39.360Z,98451.37
2018-01-18T06:39:06.935Z,98473.33
2018-01-18T06:41:34.517Z,98486.17
2018-01-18T06:44:02.119Z,98485.44
2018-01-18T06:46:29.700Z,98512.08
2018-01-18T06:48:57.255Z,98520.45
2018-01-18T06:51:24.875Z,98535.44
2018-01-18T06:53:52.563Z,98522.63
2018-01-18T06:56:20.408Z,98540.42
2018-01-18T06:58:48.023Z,98546.42
2018-01-18T07:01:15.609Z,98559.61
2018-01-18T07:03:43.240Z,98565.11
2018-01-18T07:06:10.901Z,98565.68
2018-01-18T07:08:38.459Z,98577.11
2018-01-18T07:11:06.015Z,98578.44
2018-01-18T07:13:33.612Z,98587.73
2018-01-18T07:16:01.189Z,98594.64
2018-01-18T07:18:28.766Z,98605.08
2018-01-18T07:20:56.364Z,98608.65
2018-01-18T07:23:23.930Z,98613.56
2018-01-18T07:25:51.511Z,98606.34
2018-01-18T07:28:19.118Z,98615.03
2018-01-18T07:30:46.691Z,98604.52
2018-01-18T07:33:14.272Z,98617.81
2018-01-18T07:35:41.876Z,98620.09
2018-01-18T07:38:09.440Z,98619.11
2018-01-18T07:40:37.021Z,98641.50
2018-01-18T07:43:04.631Z,98641.02
2018-01-18T07:45:32.183Z,98640.52
2018-01-18T07:47:59.778Z,98654.66
2018-01-18T07:50:27.409Z,98654.91
2018-01-18T07:52:54.984Z,98662.98
2018-01-18T07:55:22.666Z,98662.98
2018-01-18T07:57:50.326Z,98674.52
2018-01-18T08:00:17.905Z,98684.50
2018-01-18T08:02:51.124Z,98690.36
2018-01-18T08:05:18.738Z,98684.20
2018-01-18T08:07:46.317Z,98696.14
2018-01-18T08:10:13.920Z,98696.91
2018-01-18T08:12:41.499Z,98698.95
2018-01-18T08:15:09.060Z,98706.94
2018-01-18T08:17:36.673Z,98717.90
2018-01-18T08:20:04.254Z,98703.75
2018-01-18T08:22:31.824Z,98719.01
2018-01-18T08:24:59.511Z,98720.73
2018-01-18T08:27:27.101Z,98722.90
2018-01-18T08:29:54.670Z,98733.02
2018-01-18T08:32:22.312Z,98732.11
2018-01-18T08:34:50.047Z,98736.11
2018-01-18T08:37:17.625Z,98739.60
2018-01-18T08:39:45.232Z,98757.16
2018-01-18T08:42:12.799Z,98735.09
2018-01-18T08:44:40.366Z,98764.50
2018-01-18T08:47:07.995Z,98776.14
2018-01-18T08:49:35.568Z,98778.88
2018-01-18T08:52:03.196Z,98782.10
2018-01-18T08:54:30.805Z,98788.59
2018-01-18T08:56:58.378Z,98783.98
2018-01-18T08:59:25.956Z,98791.21
2018-01-18T09:01:53.566Z,98791.84
2018-01-18T09:04:21.182Z,98794.13
2018-01-18T09:06:48.777Z,98793.38
2018-01-18T09:09:16.412Z,98797.67
2018-01-18T09:11:43.989Z,98815.59
2018-01-18T09:14:11.585Z,98813.36
2018-01-18T09:16:39.196Z,98813.62
2018-01-18T09:19:06.780Z,98809.73
2018-01-18T09:21:34.338Z,98810.06
2018-01-18T09:24:01.945Z,98826.66
2018-01-18T09:26:29.540Z,98824.20
2018-01-18T09:28:57.107Z,98828.30
2018-01-18T09:31:24.768Z,98836.49
2018-01-18T09:33:52.390Z,98832.45
2018-01-18T09:36:19.959Z,98843.70
2018-01-18T09:38:47.606Z,98845.36
2018-01-18T09:41:15.187Z,98843.48
2018-01-18T09:43:42.792Z,98844.94
2018-01-18T09:46:10.404Z,98836.97
2018-01-18T09:48:37.997Z,98844.19
2018-01-18T09:51:05.567Z,98847.20
2018-01-18T09:53:33.188Z,98836.29
2018-01-18T09:56:00.763Z,98836.19
2018-01-18T09:58:28.324Z,98841.67
2018-01-18T10:00:55.942Z,98843.73
2018-01-18T10:03:23.572Z,98855.02
2018-01-18T10:05:51.170Z,98863.33
2018-01-18T10:08:18.783Z,98868.13
2018-01-18T10:10:46.345Z,98860.48
2018-01-18T10:13:13.908Z,98863.73
2018-01-18T10:15:41.522Z,98885.05
2018-01-18T10:18:09.314Z,98869.97
2018-01-18T10:20:36.900Z,98881.36
2018-01-18T10:23:04.510Z,98884.55
2018-01-18T10:25:32.144Z,98869.89
2018-01-18T10:27:59.714Z,98868.61
2018-01-18T10:30:27.503Z,98878.70
2018-01-18T10:32:55.090Z,98877.82
2018-01-18T10:35:22.849Z,98879.02
2018-01-18T10:37:50.472Z,98883.21
2018-01-18T10:40:18.031Z,98874.09
2018-01-18T10:42:45.647Z,98883.52
2018-01-18T10:45:13.254Z,98882.22
2018-01-18T10:47:40.841Z,98890.40
2018-01-18T10:50:08.419Z,98891.57
2018-01-18T10:52:36.014Z,98896.22
2018-01-18T10:55:03.593Z,98890.41
2018-01-18T10:57:31.168Z,98903.13
2018-01-18T10:59:58.779Z,98897.98
2018-01-18T11:02:26.373Z,98911.63
2018-01-18T11:04:53.969Z,98920.02
2018-01-18T11:07:21.593Z,98916.66
2018-01-18T11:09:49.328Z,98925.17
2018-01-18T11:12:16.898Z,98924.07
2018-01-18T11:14:44.517Z,98948.47
2018-01-18T11:17:12.245Z,98940.31
2018-01-18T11:19:39.808Z,98937.09
2018-01-18T11:22:07.400Z,98902.67
2018-01-18T11:24:34.979Z,98944.36
2018-01-18T11:27:02.591Z,98943.77
2018-01-18T11:29:30.216Z,98938.86
2018-01-18T11:31:57.796Z,98943.30
2018-01-18T11:34:25.426Z,98950.86
2018-01-18T11:36:53.044Z,98959.26
2018-01-18T11:39:20.610Z,98969.31
2018-01-18T11:41:48.192Z,98961.73
2018-01-18T11:44:15.834Z,98979.81
2018-01-18T11:46:43.456Z,98975.47
2018-01-18T11:49:11.036Z,98982.39
2018-01-18T11:51:38.640Z,98976.60
2018-01-18T11:54:06.254Z,98983.00
2018-01-18T11:56:33.834Z,98988.20
2018-01-18T11:59:01.504Z,98983.06
2018-01-18T12:01:29.113Z,98988.55
2018-01-18T12:03:56.709Z,99006.94
2018-01-18T12:06:24.322Z,99004.52
2018-01-18T12:08:51.894Z,99017.94
2018-01-18T12:11:19.639Z,99018.08
2018-01-18T12:13:47.212Z,99031.69
2018-01-18T12:16:14.965Z,99031.77
2018-01-18T12:18:42.534Z,99037.19
2018-01-18T12:21:10.261Z,99022.83
2018-01-18T12:23:37.805Z,99036.44
2018-01-18T12:26:05.369Z,99058.68
2018-01-18T12:28:32.999Z,99061.15
2018-01-18T12:31:00.560Z,99062.91
2018-01-18T12:33:28.176Z,99066.34
2018-01-18T12:35:55.774Z,99063.15
2018-01-18T12:38:23.338Z,99070.97
2018-01-18T12:40:50.929Z,99068.92
2018-01-18T12:43:18.629Z,99075.86
2018-01-18T12:45:46.205Z,99072.78
2018-01-18T12:48:13.769Z,99076.71
2018-01-18T12:50:41.369Z,99071.61
2018-01-18T12:53:08.934Z,99081.62
2018-01-18T12:55:36.500Z,99097.59
2018-01-18T12:58:04.107Z,99085.09
2018-01-18T13:00:31.677Z,99095.83
2018-01-18T13:02:59.318Z,99101.13
2018-01-18T13:05:26.937Z,99109.42
2018-01-18T13:07:54.515Z,99114.59
2018-01-18T13:10:22.067Z,99122.28
2018-01-18T13:12:49.689Z,99126.31
2018-01-18T13:15:17.278Z,99133.34
2018-01-18T13:17:48.033Z,99136.47
2018-01-18T13:20:15.920Z,99144.97
2018-01-18T13:22:43.487Z,99150.69
2018-01-18T13:25:11.051Z,99153.75
2018-01-18T13:27:38.676Z,99162.58
2018-01-18T13:30:06.245Z,99160.01
2018-01-18T13:32:33.849Z,99156.40
2018-01-18T13:35:01.470Z,99163.36
2018-01-18T13:37:29.068Z,99147.00
2018-01-18T13:39:56.690Z,99164.36
2018-01-18T13:42:24.302Z,99167.27
2018-01-18T13:44:51.869Z,99166.88
2018-01-18T13:47:19.460Z,99172.71
2018-01-18T13:49:47.052Z,99179.66
2018-01-18T13:52:14.629Z,99180.77
2018-01-18T13:54:42.226Z,99188.47
2018-01-18T13:57:09.827Z,99195.13
2018-01-18T13:59:37.431Z,99201.42
2018-01-18T14:02:05.035Z,99218.13
2018-01-18T14:04:32.673Z,99203.69
2018-01-18T14:07:00.252Z,99221.23
2018-01-18T14:09:27.824Z,99223.91
2018-01-18T14:11:55.446Z,99234.96
2018-01-18T14:14:23.015Z,99243.28
2018-01-18T14:16:50.759Z,99245.13
2018-01-18T14:19:18.397Z,99248.22
2018-01-18T14:21:45.985Z,99268.39
2018-01-18T14:24:13.575Z,99269.05
2018-01-18T14:26:41.181Z,99262.03
2018-01-18T14:29:08.825Z,99277.64
2018-01-18T14:31:36.384Z,99285.56
2018-01-18T14:34:03.976Z,99298.34
2018-01-18T14:36:31.549Z,99302.20
2018-01-18T14:38:59.113Z,99299.66
2018-01-18T14:41:26.748Z,99313.75
2018-01-18T14:43:54.324Z,99322.08
2018-01-18T14:46:21.904Z,99316.63
2018-01-18T14:48:49.537Z,99321.83
2018-01-18T14:51:17.121Z,99342.02
2018-01-18T14:53:44.711Z,99347.85
2018-01-18T14:56:12.331Z,99341.27
2018-01-18T14:58:39.904Z,99345.14
2018-01-18T15:01:07.481Z,99354.38
2018-01-18T15:03:35.084Z,99349.76
2018-01-18T15:06:02.648Z,99362.68
2018-01-18T15:08:30.209Z,99356.13
2018-01-18T15:10:57.802Z,99354.12
2018-01-18T15:13:26.339Z,99365.71
2018-01-18T15:15:53.909Z,99362.06
2018-01-18T15:18:21.528Z,99364.41
2018-01-18T15:20:49.100Z,99374.14
2018-01-18T15:23:16.664Z,99368.94
2018-01-18T15:25:44.340Z,99377.31
2018-01-18T15:28:11.901Z,99382.30
2018-01-18T15:30:39.467Z,99389.03
2018-01-18T15:33:07.098Z,99392.31
2018-01-18T15:35:34.681Z,99385.05
2018-01-18T15:38:02.277Z,99392.63
2018-01-18T15:40:29.865Z,99397.95
2018-01-18T15:42:57.456Z,99395.48
2018-01-18T15:45:25.035Z,99394.70
2018-01-18T15:47:52.882Z,99393.37
2018-01-18T15:50:20.446Z,99405.44
2018-01-18T15:52:48.036Z,99402.61
2018-01-18T15:55:15.631Z,99418.94
2018-01-18T15:57:43.196Z,99417.02
2018-01-18T16:00:10.779Z,99415.66
2018-01-18T16:02:38.532Z,99418.28
2018-01-18T16:05:06.099Z,99428.39
2018-01-18T16:07:33.680Z,99432.26
2018-01-18T16:10:01.299Z,99443.64
2018-01-18T16:12:28.886Z,99434.39
2018-01-18T16:14:56.467Z,99446.64
2018-01-18T16:17:24.079Z,99450.82
2018-01-18T16:19:51.718Z,99454.16
2018-01-18T16:22:19.305Z,99452.40
2018-01-18T16:24:46.917Z,99454.75
2018-01-18T16:27:14.493Z,99462.48
2018-01-18T16:29:42.077Z,99464.16
2018-01-18T16:32:09.700Z,99465.02
2018-01-18T16:34:37.285Z,99469.09
2018-01-18T16:37:04.863Z,99469.89
2018-01-18T16:39:32.479Z,99472.97
2018-01-18T16:42:00.050Z,99485.38
2018-01-18T16:44:27.621Z,99503.51
2018-01-18T16:46:55.349Z,99498.82
2018-01-18T16:49:22.975Z,99507.89
2018-01-18T16:51:50.539Z,99510.52
2018-01-18T16:54:18.149Z,99515.75
2018-01-18T16:56:45.719Z,99517.39
2018-01-18T16:59:13.297Z,99528.59
2018-01-18T17:01:40.915Z,99532.20
2018-01-18T17:04:08.487Z,99538.17
2018-01-18T17:06:36.237Z,99533.41
2018-01-18T17:09:03.897Z,99542.63
2018-01-18T17:11:31.490Z,99534.46
2018-01-18T17:13:59.085Z,99540.81
2018-01-18T17:16:26.749Z,99544.66
2018-01-18T17:18:54.316Z,99543.63
2018-01-18T17:21:21.948Z,99533.23
2018-01-18T17:23:49.553Z,99534.88
2018-01-18T17:26:17.122Z,99552.30
2018-01-18T17:28:44.686Z,99545.28
2018-01-18T17:31:12.293Z,99541.39
2018-01-18T17:33:39.883Z,99542.81
2018-01-18T17:36:07.444Z,99551.09
2018-01-18T17:38:35.045Z,99548.45
2018-01-18T17:41:03.208Z,99554.02
2018-01-18T17:43:30.794Z,99550.53
2018-01-18T17:45:58.409Z,99552.31
2018-01-18T17:48:25.980Z,99548.02
2018-01-18T17:50:53.555Z,99542.73
2018-01-18T17:53:21.171Z,99549.61
2018-01-18T17:55:48.872Z,99552.30
2018-01-18T17:58:16.444Z,99540.33
2018-01-18T18:00:44.055Z,99553.95
2018-01-18T18:03:11.629Z,99545.09
2018-01-18T18:05:39.223Z,99544.95
2018-01-18T18:08:06.844Z,99538.74
2018-01-18T18:10:34.402Z,99536.55
2018-01-18T18:13:01.968Z,99536.09
2018-01-18T18:15:29.599Z,99534.36
2018-01-18T18:17:57.162Z,99544.58
2018-01-18T18:20:24.735Z,99532.94
2018-01-18T18:22:52.385Z,99532.92
2018-01-18T18:25:19.992Z,99533.77
2018-01-18T18:27:47.605Z,99525.79
2018-01-18T18:30:15.226Z,99537.65
2018-01-18T18:32:42.836Z,99537.52
2018-01-18T18:35:10.426Z,99536.55
2018-01-18T18:37:38.060Z,99553.33
2018-01-18T18:40:05.605Z,99550.36
2018-01-18T18:42:33.175Z,99559.14
2018-01-18T18:45:00.871Z,99563.16
2018-01-18T18:47:28.449Z,99562.48
2018-01-18T18:49:56.019Z,99565.72
2018-01-18T18:52:23.637Z,99557.13
2018-01-18T18:54:51.218Z,99563.02
2018-01-18T18:57:18.796Z,99563.98
2018-01-18T18:59:46.389Z,99567.17
2018-01-18T19:02:13.987Z,99565.64
2018-01-18T19:04:41.565Z,99571.67
2018-01-18T19:07:09.189Z,99582.56
2018-01-18T19:09:36.773Z,99574.77
2018-01-18T19:12:04.332Z,99579.30
2018-01-18T19:14:31.956Z,99589.80
2018-01-18T19:16:59.545Z,99595.91
2018-01-18T19:19:27.132Z,99595.55
2018-01-18T19:21:54.797Z,99604.67
2018-01-18T19:24:22.380Z,99607.66
2018-01-18T19:26:49.970Z,99602.13
2018-01-18T19:29:17.608Z,99601.48
2018-01-18T19:31:45.187Z,99605.45
2018-01-18T19:34:12.759Z,99598.88
2018-01-18T19:36:40.484Z,99584.51
2018-01-18T19:39:08.081Z,99589.42
2018-01-18T19:41:35.643Z,99582.36
2018-01-18T19:44:03.250Z,99584.77
2018-01-18T19:46:30.842Z,99591.48
2018-01-18T19:48:58.449Z,99587.95
2018-01-18T19:51:26.062Z,99592.19
2018-01-18T19:53:53.643Z,99587.34
2018-01-18T19:56:21.198Z,99583.13
2018-01-18T19:58:48.848Z,99580.22
2018-01-18T20:01:16.426Z,99577.69
2018-01-18T20:03:44.000Z,99568.26
2018-01-18T20:06:11.603Z,99557.42
2018-01-18T20:08:39.187Z,99551.00
2018-01-18T20:11:06.774Z,99566.00
2018-01-18T20:13:34.392Z,99568.41
2018-01-18T20:16:02.002Z,99565.20
2018-01-18T20:18:30.499Z,99563.30
2018-01-18T20:20:58.092Z,99567.20
2018-01-18T20:23:25.665Z,99569.84
2018-01-18T20:25:53.240Z,99556.47
2018-01-18T20:28:20.875Z,99560.11
2018-01-18T20:30:48.508Z,99558.23
2018-01-18T20:33:16.127Z,99546.09
2018-01-18T20:35:43.753Z,99550.14
2018-01-18T20:38:11.392Z,99544.35
2018-01-18T20:40:38.964Z,99546.87
2018-01-18T20:43:06.563Z,99542.17
2018-01-18T20:45:34.152Z,99544.22
2018-01-18T20:48:01.716Z,99547.97
2018-01-18T20:50:29.410Z,99547.18
2018-01-18T20:52:56.965Z,99547.52
2018-01-18T20:55:24.540Z,99556.02
2018-01-18T20:57:52.167Z,99544.97
2018-01-18T21:00:19.746Z,99540.08
2018-01-18T21:02:53.168Z,99544.78
2018-01-18T21:05:20.766Z,99551.80
2018-01-18T21:07:48.370Z,99543.97
2018-01-18T21:10:16.012Z,99553.58
2018-01-18T21:12:43.597Z,99546.72
2018-01-18T21:15:11.175Z,99539.45
2018-01-18T21:17:38.819Z,99545.96
2018-01-18T21:20:06.435Z,99551.33
2018-01-18T21:22:34.008Z,99553.13
2018-01-18T21:25:01.612Z,99542.05
2018-01-18T21:27:29.172Z,99532.89
2018-01-18T21:29:56.762Z,99536.02
2018-01-18T21:32:24.383Z,99527.55
2018-01-18T21:34:51.986Z,99534.19
2018-01-18T21:37:19.549Z,99529.80
2018-01-18T21:39:47.545Z,99525.08
2018-01-18T21:42:15.115Z,99513.16
2018-01-18T21:44:42.684Z,99514.06
2018-01-18T21:47:10.295Z,99515.11
2018-01-18T21:49:37.882Z,99507.59
2018-01-18T21:52:05.465Z,99510.19
2018-01-18T21:54:33.069Z,99510.73
2018-01-18T21:57:00.630Z,99512.87
2018-01-18T21:59:28.189Z,99507.48
2018-01-18T22:01:55.813Z,99514.56
2018-01-18T22:04:23.399Z,99513.63
2018-01-18T22:06:50.995Z,99508.94
2018-01-18T22:09:18.604Z,99507.74
2018-01-18T22:11:46.197Z,99499.84
2018-01-18T22:14:13.761Z,99510.98
2018-01-18T22:16:41.362Z,99510.27
2018-01-18T22:19:08.923Z,99511.88
2018-01-18T22:21:36.493Z,99507.52
2018-01-18T22:24:04.103Z,99513.56
2018-01-18T22:26:31.695Z,99514.55
2018-01-18T22:28:59.308Z,99511.59
2018-01-18T22:31:26.946Z,99505.28
2018-01-18T22:33:54.533Z,99507.73
2018-01-18T22:36:22.115Z,99501.70
2018-01-18T22:38:49.721Z,99505.03
2018-01-18T22:41:17.306Z,99493.47
2018-01-18T22:43:44.889Z,99499.27
2018-01-18T22:46:12.545Z,99495.19
2018-01-18T22:48:40.140Z,99485.32
2018-01-18T22:51:07.701Z,99471.95
2018-01-18T22:53:35.308Z,99465.14
2018-01-18T22:56:02.892Z,99480.25
2018-01-18T22:58:30.442Z,99491.69
2018-01-18T23:00:58.054Z,99506.08
2018-01-18T23:03:25.624Z,99497.34
2018-01-18T23:05:53.197Z,99503.63
2018-01-18T23:08:20.944Z,99508.73
2018-01-18T23:10:48.509Z,99496.44
2018-01-18T23:13:16.106Z,99503.24
2018-01-18T23:15:43.730Z,99487.93
2018-01-18T23:18:11.299Z,99489.02
2018-01-18T23:20:38.892Z,99490.05
2018-01-18T23:23:06.506Z,99495.64
2018-01-18T23:25:34.063Z,99493.55
2018-01-18T23:28:01.630Z,99485.90
2018-01-18T23:30:29.262Z,99484.41
2018-01-18T23:32:56.839Z,99475.28
2018-01-18T23:35:24.399Z,99468.98
2018-01-18T23:37:51.983Z,99462.42
2018-01-18T23:40:19.561Z,99472.94
2018-01-18T23:42:47.127Z,99472.21
2018-01-18T23:45:14.737Z,99468.50
2018-01-18T23:47:42.314Z,99471.97
2018-01-18T23:50:09.894Z,99486.09
2018-01-18T23:52:37.490Z,99484.95
2018-01-18T23:55:05.063Z,99488.16
2018-01-18T23:57:32.642Z,99493.92
